createdAt,value
2022-11-21T00:01:42.419Z,-2.91
2022-11-21T00:04:12.958Z,-2.88
2022-11-21T00:06:51.652Z,-2.86
2022-11-21T00:09:21.080Z,-3.11
2022-11-21T00:11:53.963Z,-3.41
2022-11-21T00:14:24.706Z,-3.39
2022-11-21T00:16:57.623Z,-3.39
2022-11-21T00:19:26.681Z,-3.49
2022-11-21T00:21:58.089Z,-3.53
2022-11-21T00:24:30.158Z,-3.49
2022-11-21T00:27:02.040Z,-3.55
2022-11-21T00:29:35.490Z,-3.46
2022-11-21T00:32:06.200Z,-3.59
2022-11-21T00:34:40.097Z,-3.42
2022-11-21T00:37:18.047Z,-3.04
2022-11-21T00:39:47.366Z,-3.11
2022-11-21T00:42:16.490Z,-3.18
2022-11-21T00:44:50.170Z,-3.29
2022-11-21T00:47:20.087Z,-3.32
2022-11-21T00:49:47.466Z,-3.42
2022-11-21T00:52:14.977Z,-3.44
2022-11-21T00:54:42.346Z,-3.80
2022-11-21T00:57:10.748Z,-4.03
2022-11-21T00:59:38.258Z,-3.92
2022-11-21T01:02:07.899Z,-3.67
2022-11-21T01:04:36.099Z,-3.67
2022-11-21T01:07:03.354Z,-3.75
2022-11-21T01:09:30.657Z,-3.85
2022-11-21T01:11:57.857Z,-3.96
2022-11-21T01:14:25.531Z,-3.99
2022-11-21T01:17:00.109Z,-4.04
2022-11-21T01:19:27.697Z,-4.09
2022-11-21T01:21:55.181Z,-4.01
2022-11-21T01:24:23.537Z,-3.97
2022-11-21T01:26:51.458Z,-3.99
2022-11-21T01:29:19.177Z,-3.85
2022-11-21T01:31:46.546Z,-3.57
2022-11-21T01:34:15.417Z,-3.69
2022-11-21T01:36:43.058Z,-3.82
2022-11-21T01:39:12.059Z,-3.67
2022-11-21T01:41:42.026Z,-3.47
2022-11-21T01:44:27.076Z,-3.31
2022-11-21T01:46:54.858Z,-3.18
2022-11-21T01:49:29.817Z,-3.39
2022-11-21T01:52:07.058Z,-3.53
2022-11-21T01:54:42.417Z,-3.71
2022-11-21T01:57:34.697Z,-3.73
2022-11-21T02:00:16.619Z,-3.73
2022-11-21T02:03:06.376Z,-3.68
2022-11-21T02:05:36.417Z,-3.64
2022-11-21T02:08:12.018Z,-3.64
2022-11-21T02:10:46.338Z,-3.65
2022-11-21T02:13:13.986Z,-3.61
2022-11-21T02:15:42.268Z,-3.51
2022-11-21T02:18:12.820Z,-3.24
2022-11-21T02:20:45.498Z,-3.02
2022-11-21T02:23:46.385Z,-2.99
2022-11-21T02:26:15.659Z,-2.95
2022-11-21T02:28:43.418Z,-3.03
2022-11-21T02:31:11.100Z,-3.04
2022-11-21T02:33:38.422Z,-3.06
2022-11-21T02:36:32.626Z,-3.23
2022-11-21T02:39:00.185Z,-3.17
2022-11-21T02:41:30.221Z,-3.13
2022-11-21T02:44:08.859Z,-3.08
2022-11-21T02:46:36.542Z,-2.95
2022-11-21T02:49:07.617Z,-2.90
2022-11-21T02:51:36.261Z,-2.98
2022-11-21T02:54:03.830Z,-3.00
2022-11-21T02:56:31.179Z,-2.70
2022-11-21T02:58:59.138Z,-2.62
2022-11-21T03:01:27.733Z,-2.65
2022-11-21T03:03:54.986Z,-2.70
2022-11-21T03:06:22.536Z,-2.78
2022-11-21T03:08:49.945Z,-2.57
2022-11-21T03:11:17.417Z,-2.62
2022-11-21T03:13:45.898Z,-2.47
2022-11-21T03:16:14.378Z,-2.54
2022-11-21T03:18:43.818Z,-2.57
2022-11-21T03:21:11.339Z,-2.55
2022-11-21T03:23:38.897Z,-2.53
2022-11-21T03:26:06.225Z,-2.44
2022-11-21T03:28:33.677Z,-2.24
2022-11-21T03:31:01.258Z,-2.27
2022-11-21T03:33:28.651Z,-2.39
2022-11-21T03:35:56.046Z,-2.30
2022-11-21T03:38:23.599Z,-2.26
2022-11-21T03:40:58.280Z,-2.39
2022-11-21T03:43:25.641Z,-2.29
2022-11-21T03:45:53.042Z,-2.28
2022-11-21T03:48:20.596Z,-2.33
2022-11-21T03:50:48.998Z,-2.20
2022-11-21T03:53:16.478Z,-2.24
2022-11-21T03:55:43.886Z,-2.22
2022-11-21T03:58:11.326Z,-2.17
2022-11-21T04:00:39.891Z,-2.33
2022-11-21T04:03:07.359Z,-2.48
2022-11-21T04:05:36.838Z,-2.55
2022-11-21T04:08:08.238Z,-2.56
2022-11-21T04:10:38.477Z,-2.50
2022-11-21T04:13:09.806Z,-2.54
2022-11-21T04:15:39.717Z,-2.58
2022-11-21T04:18:12.319Z,-2.70
2022-11-21T04:20:43.757Z,-2.63
2022-11-21T04:23:14.611Z,-2.70
2022-11-21T04:25:45.637Z,-2.36
2022-11-21T04:28:16.357Z,-2.33
2022-11-21T04:30:45.518Z,-2.40
2022-11-21T04:33:19.725Z,-2.31
2022-11-21T04:35:49.597Z,-2.35
2022-11-21T04:38:17.798Z,-2.32
2022-11-21T04:40:45.760Z,-2.36
2022-11-21T04:43:13.277Z,-2.45
2022-11-21T04:45:46.839Z,-2.48
2022-11-21T04:48:14.358Z,-2.44
2022-11-21T04:50:41.774Z,-2.49
2022-11-21T04:53:09.160Z,-2.46
2022-11-21T04:55:36.677Z,-2.39
2022-11-21T04:58:04.326Z,-2.36
2022-11-21T05:00:31.568Z,-2.28
2022-11-21T05:03:07.519Z,-2.19
2022-11-21T05:05:34.638Z,-2.23
2022-11-21T05:08:02.117Z,-2.36
2022-11-21T05:10:30.717Z,-2.44
2022-11-21T05:13:19.529Z,-2.23
2022-11-21T05:15:47.965Z,-2.11
2022-11-21T05:18:15.556Z,-2.10
2022-11-21T05:20:42.919Z,-2.10
2022-11-21T05:23:10.039Z,-1.92
2022-11-21T05:25:38.319Z,-1.78
2022-11-21T05:28:06.050Z,-1.79
2022-11-21T05:30:34.437Z,-1.81
2022-11-21T05:33:04.238Z,-1.60
2022-11-21T05:35:33.608Z,-1.58
2022-11-21T05:38:03.158Z,-1.41
2022-11-21T05:40:31.367Z,-1.42
2022-11-21T05:43:20.558Z,-1.44
2022-11-21T05:45:52.380Z,-1.38
2022-11-21T05:48:25.693Z,-1.30
2022-11-21T05:50:58.605Z,-1.28
2022-11-21T05:53:29.406Z,-1.29
2022-11-21T05:56:10.178Z,-1.24
2022-11-21T05:58:41.959Z,-1.29
2022-11-21T06:01:12.846Z,-1.22
2022-11-21T06:03:44.626Z,-1.22
2022-11-21T06:06:20.857Z,-1.27
2022-11-21T06:08:52.786Z,-1.19
2022-11-21T06:11:22.067Z,-1.07
2022-11-21T06:13:49.379Z,-1.09
2022-11-21T06:16:18.659Z,-0.96
2022-11-21T06:18:56.696Z,-0.99
2022-11-21T06:21:28.509Z,-0.93
2022-11-21T06:23:57.387Z,-0.94
2022-11-21T06:26:26.298Z,-0.94
2022-11-21T06:28:55.185Z,-0.94
2022-11-21T06:31:24.818Z,-0.86
2022-11-21T06:33:57.426Z,-0.80
2022-11-21T06:36:25.021Z,-0.76
2022-11-21T06:38:54.741Z,-0.62
2022-11-21T06:41:27.339Z,-0.55
2022-11-21T06:43:54.625Z,-0.53
2022-11-21T06:46:22.100Z,-0.45
2022-11-21T06:48:49.666Z,-0.41
2022-11-21T06:51:21.938Z,-0.29
2022-11-21T06:54:01.498Z,-0.23
2022-11-21T06:56:31.659Z,-0.15
2022-11-21T06:59:00.220Z,-0.14
2022-11-21T07:01:36.719Z,-0.06
2022-11-21T07:04:04.067Z,-0.12
2022-11-21T07:06:31.461Z,-0.03
2022-11-21T07:09:31.460Z,0.00
2022-11-21T07:11:46.180Z,0.09
2022-11-21T07:14:18.306Z,0.12
2022-11-21T07:16:45.417Z,0.09
2022-11-21T07:19:12.899Z,0.17
2022-11-21T07:21:41.028Z,0.17
2022-11-21T07:24:08.346Z,0.22
2022-11-21T07:26:35.699Z,0.30
2022-11-21T07:29:03.270Z,0.36
2022-11-21T07:31:30.578Z,0.40
2022-11-21T07:33:58.098Z,0.46
2022-11-21T07:36:25.578Z,0.49
2022-11-21T07:38:52.945Z,0.57
2022-11-21T07:41:21.459Z,0.64
2022-11-21T07:43:48.980Z,0.72
2022-11-21T07:46:16.347Z,0.77
2022-11-21T07:48:43.866Z,0.80
2022-11-21T07:51:12.299Z,0.88
2022-11-21T07:53:40.859Z,0.96
2022-11-21T07:56:10.058Z,1.02
2022-11-21T07:58:37.339Z,1.09
2022-11-21T08:01:08.108Z,1.16
2022-11-21T08:03:37.419Z,1.20
2022-11-21T08:06:06.939Z,1.28
2022-11-21T08:08:35.301Z,1.27
2022-11-21T08:11:07.619Z,1.32
2022-11-21T08:13:40.938Z,1.36
2022-11-21T08:16:08.387Z,1.44
2022-11-21T08:18:36.835Z,1.51
2022-11-21T08:21:05.300Z,1.57
2022-11-21T08:23:33.138Z,1.64
2022-11-21T08:26:00.343Z,1.71
2022-11-21T08:28:28.146Z,1.86
2022-11-21T08:30:55.701Z,1.89
2022-11-21T08:33:23.239Z,1.97
2022-11-21T08:35:50.619Z,2.00
2022-11-21T08:38:19.739Z,2.02
2022-11-21T08:40:47.101Z,2.02
2022-11-21T08:43:15.549Z,2.01
2022-11-21T08:45:42.991Z,2.11
2022-11-21T08:48:12.922Z,2.17
2022-11-21T08:50:40.067Z,2.16
2022-11-21T08:53:08.189Z,2.18
2022-11-21T08:55:35.388Z,2.22
2022-11-21T08:58:02.430Z,2.27
2022-11-21T09:00:29.865Z,2.26
2022-11-21T09:02:57.218Z,2.29
2022-11-21T09:05:24.943Z,2.31
2022-11-21T09:07:59.068Z,2.38
2022-11-21T09:10:31.341Z,2.47
2022-11-21T09:13:00.227Z,2.55
2022-11-21T09:15:48.057Z,2.57
2022-11-21T09:18:15.420Z,2.58
2022-11-21T09:20:45.021Z,2.65
2022-11-21T09:23:15.550Z,2.68
2022-11-21T09:25:43.382Z,2.74
2022-11-21T09:28:12.990Z,2.81
2022-11-21T09:30:41.629Z,2.80
2022-11-21T09:33:14.984Z,2.88
2022-11-21T09:35:42.379Z,2.94
2022-11-21T09:38:11.058Z,2.98
2022-11-21T09:40:45.258Z,3.08
2022-11-21T09:43:28.299Z,3.12
2022-11-21T09:46:03.380Z,3.25
2022-11-21T09:48:44.067Z,3.35
2022-11-21T09:51:15.347Z,3.57
2022-11-21T09:54:01.111Z,3.65
2022-11-21T09:56:32.500Z,3.66
2022-11-21T09:59:26.119Z,3.73
2022-11-21T10:01:53.342Z,3.78
2022-11-21T10:04:20.759Z,3.83
2022-11-21T10:07:06.128Z,3.85
2022-11-21T10:09:36.458Z,3.94
2022-11-21T10:12:32.738Z,3.87
2022-11-21T10:15:29.768Z,4.00
2022-11-21T10:18:11.285Z,3.99
2022-11-21T10:20:44.679Z,4.07
2022-11-21T10:23:14.805Z,4.14
2022-11-21T10:26:05.597Z,4.25
2022-11-21T10:28:50.979Z,4.29
2022-11-21T10:31:21.635Z,4.41
2022-11-21T10:33:54.373Z,4.46
2022-11-21T10:36:34.040Z,4.53
2022-11-21T10:39:42.261Z,4.53
2022-11-21T10:42:35.565Z,4.84
2022-11-21T10:45:19.770Z,4.90
2022-11-21T10:47:51.648Z,5.02
2022-11-21T10:50:37.722Z,5.53
2022-11-21T10:53:40.418Z,5.94
2022-11-21T10:56:24.259Z,5.78
2022-11-21T10:58:54.086Z,5.98
2022-11-21T11:01:33.287Z,5.60
2022-11-21T11:04:28.568Z,5.56
2022-11-21T11:07:00.588Z,5.52
2022-11-21T11:09:33.161Z,5.37
2022-11-21T11:12:51.245Z,5.27
2022-11-21T11:15:25.087Z,5.34
2022-11-21T11:18:09.161Z,5.17
2022-11-21T11:20:43.103Z,5.24
2022-11-21T11:23:25.423Z,5.22
2022-11-21T11:26:00.969Z,5.17
2022-11-21T11:28:36.621Z,5.23
2022-11-21T11:31:04.358Z,5.32
2022-11-21T11:33:50.024Z,5.37
2022-11-21T11:36:39.857Z,5.36
2022-11-21T11:39:19.083Z,5.45
2022-11-21T11:42:05.066Z,5.40
2022-11-21T11:44:58.069Z,5.38
2022-11-21T11:47:39.886Z,5.33
2022-11-21T11:50:17.558Z,5.36
2022-11-21T11:53:09.327Z,5.40
2022-11-21T11:55:46.860Z,5.41
2022-11-21T11:58:22.482Z,5.47
2022-11-21T12:01:00.959Z,5.59
2022-11-21T12:04:02.927Z,5.67
2022-11-21T12:10:19.936Z,5.61
2022-11-21T12:12:56.581Z,5.59
2022-11-21T12:15:50.658Z,5.65
2022-11-21T12:18:31.328Z,5.75
2022-11-21T12:21:04.562Z,5.71
2022-11-21T12:23:51.461Z,5.77
2022-11-21T12:26:45.179Z,5.94
2022-11-21T12:29:48.438Z,6.00
2022-11-21T12:33:10.849Z,6.01
2022-11-21T12:36:18.266Z,5.96
2022-11-21T12:39:09.404Z,5.91
2022-11-21T12:42:36.255Z,5.98
2022-11-21T12:45:24.738Z,5.98
2022-11-21T12:48:31.828Z,5.89
2022-11-21T12:51:27.820Z,5.99
2022-11-21T12:54:17.779Z,5.83
2022-11-21T12:57:17.506Z,5.75
2022-11-21T13:00:03.298Z,5.80
2022-11-21T13:03:02.419Z,5.76
2022-11-21T13:05:38.308Z,5.79
2022-11-21T13:08:25.321Z,5.81
2022-11-21T13:11:40.340Z,5.82
2022-11-21T13:14:16.750Z,5.77
2022-11-21T13:16:50.501Z,5.65
2022-11-21T13:19:34.165Z,5.64
2022-11-21T13:22:02.189Z,5.78
2022-11-21T13:24:48.699Z,5.75
2022-11-21T13:27:38.228Z,5.74
2022-11-21T13:30:11.820Z,5.65
2022-11-21T13:32:55.820Z,5.56
2022-11-21T13:35:51.380Z,5.52
2022-11-21T13:38:19.064Z,5.51
2022-11-21T13:41:06.981Z,5.51
2022-11-21T13:43:35.479Z,5.54
2022-11-21T13:46:03.251Z,5.38
2022-11-21T13:49:08.320Z,5.32
2022-11-21T13:51:49.602Z,5.25
2022-11-21T13:54:39.929Z,5.08
2022-11-21T13:57:29.321Z,5.13
2022-11-21T14:00:14.364Z,5.26
2022-11-21T14:03:02.239Z,5.11
2022-11-21T14:05:52.895Z,5.10
2022-11-21T14:08:24.245Z,4.99
2022-11-21T14:10:53.252Z,4.75
2022-11-21T14:13:28.363Z,4.69
2022-11-21T14:16:27.609Z,4.65
2022-11-21T14:18:55.619Z,4.75
2022-11-21T14:21:41.167Z,4.74
2022-11-21T14:24:18.638Z,4.86
2022-11-21T14:26:53.563Z,4.94
2022-11-21T14:29:53.072Z,4.81
2022-11-21T14:32:34.896Z,4.67
2022-11-21T14:35:25.184Z,4.64
2022-11-21T14:37:55.667Z,4.50
2022-11-21T14:40:24.737Z,4.57
2022-11-21T14:42:53.007Z,4.64
2022-11-21T14:45:24.330Z,4.74
2022-11-21T14:47:54.644Z,4.77
2022-11-21T14:50:31.127Z,4.66
2022-11-21T14:53:00.901Z,4.71
2022-11-21T14:55:31.645Z,4.62
2022-11-21T14:58:02.935Z,4.60
2022-11-21T15:03:24.346Z,4.58
2022-11-21T15:06:08.168Z,4.63
2022-11-21T15:09:33.368Z,4.69
2022-11-21T15:11:54.449Z,4.41
2022-11-21T15:14:44.376Z,4.32
2022-11-21T15:17:17.249Z,4.27
2022-11-21T15:19:47.289Z,4.18
2022-11-21T15:22:38.609Z,4.32
2022-11-21T15:25:18.452Z,4.48
2022-11-21T15:27:48.330Z,4.43
2022-11-21T15:30:16.372Z,4.42
2022-11-21T15:33:03.928Z,4.17
2022-11-21T15:35:55.011Z,4.00
2022-11-21T15:38:57.700Z,3.74
2022-11-21T15:41:38.332Z,3.31
2022-11-21T15:44:07.500Z,3.14
2022-11-21T15:46:38.431Z,3.08
2022-11-21T15:49:31.370Z,3.05
2022-11-21T15:52:12.568Z,2.82
2022-11-21T15:54:40.501Z,2.76
2022-11-21T15:57:10.465Z,2.63
2022-11-21T15:59:38.530Z,2.51
2022-11-21T16:02:14.572Z,2.40
2022-11-21T16:04:45.106Z,2.50
2022-11-21T16:07:14.597Z,2.50
2022-11-21T16:09:52.001Z,2.49
2022-11-21T16:12:21.494Z,2.41
2022-11-21T16:14:50.408Z,2.34
2022-11-21T16:17:18.887Z,2.41
2022-11-21T16:19:47.327Z,2.35
2022-11-21T16:22:17.279Z,2.49
2022-11-21T16:24:45.283Z,2.40
2022-11-21T16:27:12.967Z,2.38
2022-11-21T16:29:40.616Z,2.36
2022-11-21T16:32:08.199Z,2.37
2022-11-21T16:34:42.008Z,2.21
2022-11-21T16:37:10.861Z,2.24
2022-11-21T16:39:38.763Z,2.31
2022-11-21T16:42:10.768Z,2.34
2022-11-21T16:44:37.965Z,2.36
2022-11-21T16:47:08.602Z,2.33
2022-11-21T16:49:44.239Z,2.32
2022-11-21T16:52:14.328Z,2.21
2022-11-21T16:54:41.719Z,2.26
2022-11-21T16:57:10.731Z,2.19
2022-11-21T16:59:38.248Z,2.23
2022-11-21T17:02:06.925Z,2.18
2022-11-21T17:04:35.448Z,2.19
2022-11-21T17:07:03.234Z,2.16
2022-11-21T17:09:30.718Z,1.97
2022-11-21T17:11:58.999Z,1.97
2022-11-21T17:14:27.388Z,2.06
2022-11-21T17:16:55.319Z,2.01
2022-11-21T17:19:23.920Z,2.03
2022-11-21T17:21:53.043Z,1.92
2022-11-21T17:24:21.966Z,1.83
2022-11-21T17:26:50.178Z,1.90
2022-11-21T17:29:18.685Z,1.93
2022-11-21T17:31:50.373Z,1.98
2022-11-21T17:34:18.622Z,1.84
2022-11-21T17:36:46.808Z,1.73
2022-11-21T17:39:15.450Z,1.57
2022-11-21T17:41:44.130Z,1.67
2022-11-21T17:44:15.805Z,1.67
2022-11-21T17:46:44.405Z,1.67
2022-11-21T17:49:14.408Z,1.57
2022-11-21T17:51:42.365Z,1.49
2022-11-21T17:54:11.802Z,1.44
2022-11-21T17:56:48.336Z,1.34
2022-11-21T17:59:20.366Z,1.29
2022-11-21T18:01:48.513Z,1.22
2022-11-21T18:04:18.678Z,1.06
2022-11-21T18:06:47.106Z,0.95
2022-11-21T18:09:15.539Z,0.83
2022-11-21T18:11:46.217Z,0.61
2022-11-21T18:14:14.849Z,0.29
2022-11-21T18:16:47.559Z,0.41
2022-11-21T18:19:19.365Z,0.39
2022-11-21T18:21:46.970Z,0.44
2022-11-21T18:24:16.798Z,0.45
2022-11-21T18:26:46.971Z,0.45
2022-11-21T18:32:03.982Z,0.66
2022-11-21T18:34:31.852Z,0.67
2022-11-21T18:37:00.759Z,0.85
2022-11-21T18:39:29.152Z,0.79
2022-11-21T18:41:57.238Z,0.49
2022-11-21T18:44:26.398Z,0.58
2022-11-21T18:46:55.121Z,0.55
2022-11-21T18:49:22.448Z,0.41
2022-11-21T18:51:52.377Z,0.28
2022-11-21T18:54:20.246Z,0.39
2022-11-21T18:56:48.198Z,0.28
2022-11-21T18:59:16.293Z,0.52
2022-11-21T19:01:44.374Z,0.32
2022-11-21T19:04:14.878Z,0.03
2022-11-21T19:06:45.478Z,-0.19
2022-11-21T19:09:14.346Z,-0.26
2022-11-21T19:11:43.958Z,-0.20
2022-11-21T19:14:14.518Z,-0.29
2022-11-21T19:16:51.287Z,-0.28
2022-11-21T19:19:36.501Z,-0.29
2022-11-21T19:22:08.528Z,0.04
2022-11-21T19:24:37.958Z,0.09
2022-11-21T19:27:07.599Z,0.06
2022-11-21T19:29:37.806Z,0.18
2022-11-21T19:32:05.988Z,0.15
2022-11-21T19:34:33.765Z,0.08
2022-11-21T19:37:02.582Z,0.05
2022-11-21T19:39:30.405Z,0.05
2022-11-21T19:41:59.890Z,0.16
2022-11-21T19:44:28.533Z,0.13
2022-11-21T19:46:57.173Z,0.02
2022-11-21T19:49:26.898Z,-0.04
2022-11-21T19:51:57.644Z,-0.20
2022-11-21T19:54:26.917Z,-0.22
2022-11-21T19:56:54.689Z,-0.20
2022-11-21T19:59:23.409Z,-0.38
2022-11-21T20:01:52.992Z,-0.26
2022-11-21T20:04:22.451Z,-0.27
2022-11-21T20:06:51.546Z,-0.18
2022-11-21T20:09:25.085Z,-0.07
2022-11-21T20:11:53.685Z,-0.06
2022-11-21T20:14:22.619Z,-0.04
2022-11-21T20:16:54.100Z,0.02
2022-11-21T20:19:25.330Z,0.04
2022-11-21T20:21:54.206Z,0.04
2022-11-21T20:24:23.564Z,-0.01
2022-11-21T20:26:51.448Z,-0.18
2022-11-21T20:29:21.488Z,-0.22
2022-11-21T20:31:51.164Z,-0.01
2022-11-21T20:34:19.246Z,0.29
2022-11-21T20:36:55.051Z,0.21
2022-11-21T20:39:24.203Z,0.22
2022-11-21T20:41:52.368Z,0.16
2022-11-21T20:47:11.334Z,0.27
2022-11-21T20:49:39.285Z,0.30
2022-11-21T20:55:01.449Z,-0.06
2022-11-21T20:57:31.245Z,0.01
2022-11-21T21:00:09.925Z,0.10
2022-11-21T21:02:37.841Z,0.14
2022-11-21T21:05:08.010Z,0.15
2022-11-21T21:07:38.227Z,0.26
2022-11-21T21:10:08.708Z,0.19
2022-11-21T21:12:37.138Z,0.14
2022-11-21T21:15:06.473Z,0.17
2022-11-21T21:17:37.007Z,0.26
2022-11-21T21:20:07.358Z,0.17
2022-11-21T21:22:36.059Z,0.16
2022-11-21T21:25:06.092Z,0.27
2022-11-21T21:27:37.637Z,0.32
2022-11-21T21:30:07.767Z,0.24
2022-11-21T21:32:36.048Z,0.22
2022-11-21T21:35:03.545Z,0.17
2022-11-21T21:37:30.944Z,0.28
2022-11-21T21:39:58.339Z,0.23
2022-11-21T21:42:25.817Z,0.15
2022-11-21T21:44:53.189Z,0.06
2022-11-21T21:47:21.621Z,-0.03
2022-11-21T21:49:49.499Z,-0.01
2022-11-21T21:52:18.177Z,0.05
2022-11-21T21:54:45.823Z,0.10
2022-11-21T21:57:13.057Z,0.09
2022-11-21T21:59:44.539Z,0.14
2022-11-21T22:02:12.542Z,0.09
2022-11-21T22:04:39.991Z,0.23
2022-11-21T22:07:08.979Z,0.20
2022-11-21T22:09:36.545Z,0.26
2022-11-21T22:12:03.586Z,0.23
2022-11-21T22:14:31.227Z,0.20
2022-11-21T22:16:58.859Z,0.16
2022-11-21T22:19:26.505Z,0.21
2022-11-21T22:21:53.778Z,0.30
2022-11-21T22:24:26.620Z,0.27
2022-11-21T22:26:54.464Z,0.20
2022-11-21T22:29:21.865Z,0.24
2022-11-21T22:31:49.238Z,0.24
2022-11-21T22:34:16.757Z,0.16
2022-11-21T22:36:45.037Z,0.20
2022-11-21T22:39:12.159Z,0.23
2022-11-21T22:41:39.686Z,0.16
2022-11-21T22:44:07.055Z,0.04
2022-11-21T22:46:34.557Z,0.16
2022-11-21T22:49:03.880Z,0.21
2022-11-21T22:51:31.479Z,0.09
2022-11-21T22:53:58.997Z,0.12
2022-11-21T22:56:27.396Z,-0.03
2022-11-21T22:58:55.111Z,-0.02
2022-11-21T23:01:26.332Z,-0.01
2022-11-21T23:03:55.963Z,0.03
2022-11-21T23:06:25.587Z,-0.12
2022-11-21T23:08:54.507Z,-0.09
2022-11-21T23:11:28.216Z,-0.05
2022-11-21T23:13:57.507Z,-0.08
2022-11-21T23:16:26.231Z,-0.07
2022-11-21T23:19:01.627Z,0.05
2022-11-21T23:21:31.152Z,0.02
2022-11-21T23:23:58.540Z,0.01
2022-11-21T23:26:25.588Z,0.03
2022-11-21T23:28:55.058Z,0.05
2022-11-21T23:31:22.499Z,0.02
2022-11-21T23:33:50.021Z,0.00
2022-11-21T23:36:17.358Z,-0.03
2022-11-21T23:38:44.866Z,-0.06
2022-11-21T23:41:12.346Z,-0.03
2022-11-21T23:43:41.787Z,-0.10
2022-11-21T23:46:09.387Z,-0.13
2022-11-21T23:48:37.755Z,-0.12
2022-11-21T23:51:07.258Z,-0.21
2022-11-21T23:53:34.746Z,-0.09
2022-11-21T23:56:02.231Z,-0.21
2022-11-21T23:58:29.705Z,-0.29
